createdAt,value
2024-02-22T00:00:31.162Z,69.65
2024-02-22T00:03:19.411Z,70.16
2024-02-22T00:05:47.366Z,70.74
2024-02-22T00:08:15.397Z,70.41
2024-02-22T00:10:43.825Z,69.92
2024-02-22T00:13:12.237Z,69.79
2024-02-22T00:15:40.057Z,69.81
2024-02-22T00:18:08.043Z,69.67
2024-02-22T00:20:36.009Z,69.51
2024-02-22T00:23:07.112Z,69.42
2024-02-22T00:25:35.280Z,69.31
2024-02-22T00:28:03.445Z,69.26
2024-02-22T00:30:32.011Z,69.50
2024-02-22T00:32:59.900Z,69.45
2024-02-22T00:35:28.393Z,69.44
2024-02-22T00:37:56.315Z,69.46
2024-02-22T00:40:24.177Z,69.52
2024-02-22T00:42:52.072Z,69.61
2024-02-22T00:45:21.462Z,69.43
2024-02-22T00:47:49.499Z,69.40
2024-02-22T00:50:17.482Z,69.43
2024-02-22T00:52:45.479Z,69.36
2024-02-22T00:55:13.394Z,69.59
2024-02-22T00:57:41.501Z,69.59
2024-02-22T01:00:12.574Z,69.77
2024-02-22T01:02:40.538Z,69.69
2024-02-22T01:05:09.203Z,69.52
2024-02-22T01:07:37.401Z,69.82
2024-02-22T01:10:06.692Z,69.70
2024-02-22T01:12:34.905Z,69.63
2024-02-22T01:15:03.610Z,69.49
2024-02-22T01:17:31.551Z,69.62
2024-02-22T01:19:59.652Z,69.78
2024-02-22T01:22:27.858Z,70.01
2024-02-22T01:24:55.909Z,70.09
2024-02-22T01:27:23.750Z,70.06
2024-02-22T01:29:51.717Z,70.12
2024-02-22T01:32:19.641Z,70.22
2024-02-22T01:34:47.504Z,70.00
2024-02-22T01:37:16.027Z,69.95
2024-02-22T01:39:43.832Z,69.85
2024-02-22T01:42:11.675Z,69.96
2024-02-22T01:44:39.684Z,69.99
2024-02-22T01:47:08.109Z,69.84
2024-02-22T01:49:36.138Z,70.25
2024-02-22T01:52:06.145Z,70.06
2024-02-22T01:54:34.262Z,70.07
2024-02-22T01:57:02.390Z,70.17
2024-02-22T01:59:30.967Z,70.15
2024-02-22T02:02:00.928Z,70.14
2024-02-22T02:04:30.416Z,70.00
2024-02-22T02:06:58.672Z,70.05
2024-02-22T02:09:26.665Z,69.94
2024-02-22T02:11:54.608Z,69.50
2024-02-22T02:14:22.735Z,69.69
2024-02-22T02:16:50.787Z,69.77
2024-02-22T02:19:21.152Z,69.78
2024-02-22T02:21:55.033Z,69.50
2024-02-22T02:24:39.324Z,69.75
2024-02-22T02:27:07.239Z,69.67
2024-02-22T02:29:35.042Z,69.77
2024-02-22T02:32:03.212Z,69.81
2024-02-22T02:34:31.415Z,69.84
2024-02-22T02:36:59.340Z,69.66
2024-02-22T02:39:27.233Z,69.67
2024-02-22T02:41:55.289Z,69.41
2024-02-22T02:44:23.222Z,69.32
2024-02-22T02:46:51.377Z,69.42
2024-02-22T02:49:19.473Z,69.50
2024-02-22T02:51:48.669Z,69.42
2024-02-22T02:54:16.682Z,69.45
2024-02-22T02:56:44.534Z,69.38
2024-02-22T02:59:13.410Z,69.33
2024-02-22T03:01:48.289Z,69.11
2024-02-22T03:04:17.541Z,69.05
2024-02-22T03:06:46.810Z,69.28
2024-02-22T03:09:15.832Z,69.25
2024-02-22T03:11:44.837Z,69.16
2024-02-22T03:14:12.976Z,69.15
2024-02-22T03:16:41.138Z,69.04
2024-02-22T03:19:10.906Z,68.90
2024-02-22T03:21:39.073Z,68.71
2024-02-22T03:24:08.825Z,68.30
2024-02-22T03:26:37.678Z,68.22
2024-02-22T03:29:07.055Z,68.43
2024-02-22T03:31:35.170Z,68.38
2024-02-22T03:34:04.222Z,68.18
2024-02-22T03:36:32.366Z,67.90
2024-02-22T03:39:00.145Z,67.96
2024-02-22T03:41:28.480Z,67.76
2024-02-22T03:43:56.672Z,67.74
2024-02-22T03:46:24.523Z,67.84
2024-02-22T03:48:52.911Z,67.43
2024-02-22T03:51:20.870Z,66.90
2024-02-22T03:53:48.754Z,66.75
2024-02-22T03:56:17.841Z,66.80
2024-02-22T03:58:45.869Z,66.72
2024-02-22T04:01:14.802Z,66.65
2024-02-22T04:03:42.845Z,66.50
2024-02-22T04:06:11.364Z,66.59
2024-02-22T04:08:39.273Z,66.34
2024-02-22T04:11:07.254Z,66.55
2024-02-22T04:13:38.791Z,66.52
2024-02-22T04:16:07.220Z,66.30
2024-02-22T04:18:35.480Z,66.13
2024-02-22T04:21:04.158Z,65.68
2024-02-22T04:23:31.986Z,65.38
2024-02-22T04:25:59.889Z,65.38
2024-02-22T04:28:28.591Z,65.30
2024-02-22T04:30:56.418Z,65.08
2024-02-22T04:33:24.251Z,65.01
2024-02-22T04:35:52.292Z,65.02
2024-02-22T04:38:20.428Z,64.87
2024-02-22T04:40:48.274Z,64.56
2024-02-22T04:43:16.195Z,64.29
2024-02-22T04:45:44.391Z,64.07
2024-02-22T04:48:12.300Z,63.89
2024-02-22T04:50:40.245Z,63.86
2024-02-22T04:53:08.152Z,63.54
2024-02-22T04:55:36.270Z,63.58
2024-02-22T04:58:05.574Z,63.31
2024-02-22T05:00:35.943Z,63.10
2024-02-22T05:03:04.877Z,63.16
2024-02-22T05:05:33.187Z,62.98
2024-02-22T05:08:01.311Z,63.05
2024-02-22T05:10:29.372Z,62.99
2024-02-22T05:12:57.196Z,62.78
2024-02-22T05:15:25.004Z,62.46
2024-02-22T05:17:53.155Z,61.85
2024-02-22T05:20:21.057Z,61.61
2024-02-22T05:22:49.216Z,60.85
2024-02-22T05:25:17.095Z,61.15
2024-02-22T05:27:44.956Z,60.71
2024-02-22T05:30:14.408Z,59.42
2024-02-22T05:32:42.927Z,59.28
2024-02-22T05:35:10.973Z,59.61
2024-02-22T05:37:39.050Z,59.69
2024-02-22T05:40:10.603Z,59.94
2024-02-22T05:42:38.454Z,59.82
2024-02-22T05:45:07.960Z,59.90
2024-02-22T05:47:35.883Z,60.14
2024-02-22T05:50:04.672Z,60.40
2024-02-22T05:52:32.534Z,60.49
2024-02-22T05:55:00.428Z,60.66
2024-02-22T05:57:29.408Z,60.61
2024-02-22T05:59:57.310Z,60.68
2024-02-22T06:02:26.176Z,60.79
2024-02-22T06:04:54.363Z,60.95
2024-02-22T06:07:22.426Z,61.04
2024-02-22T06:09:51.443Z,61.10
2024-02-22T06:12:19.430Z,61.31
2024-02-22T06:14:47.291Z,61.40
2024-02-22T06:17:15.189Z,61.47
2024-02-22T06:19:43.191Z,61.36
2024-02-22T06:22:11.108Z,61.48
2024-02-22T06:24:39.933Z,61.35
2024-02-22T06:27:08.055Z,61.55
2024-02-22T06:29:36.280Z,61.60
2024-02-22T06:32:04.745Z,61.65
2024-02-22T06:34:32.744Z,61.75
2024-02-22T06:37:00.823Z,62.05
2024-02-22T06:39:29.216Z,62.17
2024-02-22T06:41:57.243Z,62.37
2024-02-22T06:44:25.127Z,62.63
2024-02-22T06:46:54.377Z,62.58
2024-02-22T06:49:22.650Z,62.85
2024-02-22T06:51:50.571Z,62.95
2024-02-22T06:54:18.497Z,63.07
2024-02-22T06:56:48.671Z,63.35
2024-02-22T06:59:18.432Z,63.50
2024-02-22T07:01:46.542Z,63.68
2024-02-22T07:04:15.098Z,63.79
2024-02-22T07:06:43.160Z,63.72
2024-02-22T07:09:12.833Z,63.89
2024-02-22T07:11:40.850Z,63.87
2024-02-22T07:14:09.193Z,63.87
2024-02-22T07:16:37.171Z,63.88
2024-02-22T07:19:05.238Z,64.05
2024-02-22T07:21:34.599Z,63.97
2024-02-22T07:24:04.446Z,64.07
2024-02-22T07:26:32.667Z,64.76
2024-02-22T07:29:01.002Z,64.56
2024-02-22T07:31:29.121Z,64.65
2024-02-22T07:33:57.090Z,64.75
2024-02-22T07:36:26.325Z,64.78
2024-02-22T07:38:54.213Z,64.84
2024-02-22T07:41:22.824Z,64.86
2024-02-22T07:43:51.245Z,65.31
2024-02-22T07:46:19.376Z,65.40
2024-02-22T07:48:47.552Z,65.81
2024-02-22T07:51:15.429Z,65.77
2024-02-22T07:53:44.183Z,65.96
2024-02-22T07:56:12.696Z,65.97
2024-02-22T07:58:48.324Z,65.97
2024-02-22T08:01:17.054Z,66.05
2024-02-22T08:03:45.700Z,66.12
2024-02-22T08:06:14.146Z,66.09
2024-02-22T08:08:42.073Z,66.18
2024-02-22T08:11:11.646Z,66.24
2024-02-22T08:13:39.947Z,66.12
2024-02-22T08:16:09.525Z,66.29
2024-02-22T08:18:38.962Z,66.29
2024-02-22T08:21:08.129Z,66.01
2024-02-22T08:23:36.421Z,66.22
2024-02-22T08:26:04.452Z,66.05
2024-02-22T08:28:33.915Z,66.11
2024-02-22T08:31:01.964Z,66.18
2024-02-22T08:33:31.031Z,66.48
2024-02-22T08:35:59.145Z,66.78
2024-02-22T08:38:27.311Z,66.78
2024-02-22T08:40:55.466Z,67.02
2024-02-22T08:43:23.490Z,67.33
2024-02-22T08:45:52.718Z,67.68
2024-02-22T08:48:20.701Z,67.74
2024-02-22T08:50:48.760Z,68.08
2024-02-22T08:53:16.681Z,68.09
2024-02-22T08:55:44.935Z,68.52
2024-02-22T08:58:12.918Z,68.50
2024-02-22T09:00:40.862Z,68.71
2024-02-22T09:03:10.842Z,68.94
2024-02-22T09:05:38.919Z,68.87
2024-02-22T09:08:08.397Z,69.04
2024-02-22T09:10:36.676Z,69.42
2024-02-22T09:13:04.985Z,69.61
2024-02-22T09:15:32.858Z,69.80
2024-02-22T09:18:01.073Z,69.85
2024-02-22T09:20:29.126Z,69.81
2024-02-22T09:22:57.490Z,70.01
2024-02-22T09:25:25.725Z,70.16
2024-02-22T09:27:53.544Z,70.26
2024-02-22T09:30:21.939Z,70.22
2024-02-22T09:32:52.341Z,70.26
2024-02-22T09:35:20.290Z,70.36
2024-02-22T09:37:48.756Z,70.59
2024-02-22T09:40:16.959Z,70.57
2024-02-22T09:42:45.196Z,70.57
2024-02-22T09:45:13.027Z,70.47
2024-02-22T09:47:40.984Z,70.58
2024-02-22T09:50:12.790Z,70.70
2024-02-22T09:52:41.029Z,70.68
2024-02-22T09:55:10.531Z,70.54
2024-02-22T09:57:38.384Z,70.73
2024-02-22T10:00:08.008Z,70.81
2024-02-22T10:02:45.863Z,71.05
2024-02-22T10:05:14.205Z,71.15
2024-02-22T10:07:42.278Z,71.18
2024-02-22T10:10:10.390Z,71.41
2024-02-22T10:12:45.685Z,71.29
2024-02-22T10:15:28.565Z,71.41
2024-02-22T10:17:57.084Z,71.32
2024-02-22T10:20:32.401Z,71.45
2024-02-22T10:23:08.454Z,71.50
2024-02-22T10:25:38.427Z,71.39
2024-02-22T10:28:07.081Z,71.48
2024-02-22T10:30:34.899Z,71.48
2024-02-22T10:33:03.841Z,71.27
2024-02-22T10:35:36.163Z,71.41
2024-02-22T10:38:05.872Z,71.63
2024-02-22T10:40:34.885Z,71.46
2024-02-22T10:43:05.626Z,71.51
2024-02-22T10:45:35.171Z,71.62
2024-02-22T10:48:09.825Z,71.51
2024-02-22T10:50:38.580Z,71.53
2024-02-22T10:53:14.154Z,71.30
2024-02-22T10:55:52.687Z,71.39
2024-02-22T10:58:25.186Z,71.35
2024-02-22T11:00:56.380Z,71.40
2024-02-22T11:03:26.716Z,71.26
2024-02-22T11:05:54.829Z,70.99
2024-02-22T11:08:23.046Z,70.70
2024-02-22T11:11:11.715Z,70.38
2024-02-22T11:13:40.108Z,70.32
2024-02-22T11:16:17.274Z,69.74
2024-02-22T11:18:47.713Z,69.43
2024-02-22T11:21:16.178Z,69.38
2024-02-22T11:23:44.684Z,69.48
2024-02-22T11:26:12.632Z,69.50
2024-02-22T11:28:40.638Z,69.37
2024-02-22T11:31:12.608Z,69.37
2024-02-22T11:33:41.920Z,69.40
2024-02-22T11:36:10.355Z,69.68
2024-02-22T11:38:38.246Z,69.60
2024-02-22T11:41:06.938Z,69.65
2024-02-22T11:43:36.627Z,69.47
2024-02-22T11:46:06.624Z,69.54
2024-02-22T11:48:35.155Z,69.33
2024-02-22T11:51:04.865Z,69.56
2024-02-22T11:53:32.740Z,69.37
2024-02-22T11:56:00.720Z,69.49
2024-02-22T11:58:28.774Z,69.24
2024-02-22T12:00:56.889Z,69.15
2024-02-22T12:03:24.761Z,69.23
2024-02-22T12:05:52.858Z,68.60
2024-02-22T12:08:21.329Z,67.88
2024-02-22T12:10:49.568Z,67.64
2024-02-22T12:13:17.636Z,67.64
2024-02-22T12:15:46.050Z,67.74
2024-02-22T12:18:16.060Z,67.65
2024-02-22T12:20:44.807Z,67.94
2024-02-22T12:23:12.777Z,67.90
2024-02-22T12:25:51.503Z,67.87
2024-02-22T12:28:20.501Z,67.43
2024-02-22T12:30:48.310Z,67.30
2024-02-22T12:33:23.784Z,66.91
2024-02-22T12:35:52.009Z,66.77
2024-02-22T12:38:20.032Z,66.18
2024-02-22T12:40:48.139Z,65.79
2024-02-22T12:43:22.988Z,65.25
2024-02-22T12:45:51.668Z,64.41
2024-02-22T12:48:19.818Z,64.28
2024-02-22T12:50:47.756Z,63.78
2024-02-22T12:53:15.699Z,62.85
2024-02-22T12:55:44.726Z,63.25
2024-02-22T12:58:12.633Z,63.15
2024-02-22T13:00:40.494Z,63.28
2024-02-22T13:03:08.689Z,62.80
2024-02-22T13:05:37.029Z,62.82
2024-02-22T13:08:11.079Z,62.84
2024-02-22T13:10:43.668Z,63.13
2024-02-22T13:13:11.862Z,62.87
2024-02-22T13:15:39.721Z,62.86
2024-02-22T13:18:08.048Z,62.62
2024-02-22T13:20:38.032Z,62.75
2024-02-22T13:23:07.319Z,62.83
2024-02-22T13:25:36.114Z,62.72
2024-02-22T13:28:04.670Z,62.83
2024-02-22T13:30:32.864Z,63.04
2024-02-22T13:33:00.986Z,62.80
2024-02-22T13:35:29.393Z,62.65
2024-02-22T13:38:29.709Z,62.52
2024-02-22T13:41:11.286Z,62.82
2024-02-22T13:43:41.382Z,62.60
2024-02-22T13:46:09.489Z,62.89
2024-02-22T13:48:38.717Z,62.92
2024-02-22T13:51:07.114Z,62.82
2024-02-22T13:53:34.951Z,63.13
2024-02-22T13:56:03.009Z,63.35
2024-02-22T13:58:35.822Z,63.32
2024-02-22T14:01:05.490Z,63.03
2024-02-22T14:03:34.478Z,63.32
2024-02-22T14:06:04.783Z,63.27
2024-02-22T14:08:32.975Z,63.38
2024-02-22T14:11:03.741Z,63.20
2024-02-22T14:13:36.706Z,63.19
2024-02-22T14:16:05.996Z,62.88
2024-02-22T14:18:36.389Z,63.01
2024-02-22T14:21:05.946Z,63.02
2024-02-22T14:23:33.818Z,63.21
2024-02-22T14:26:01.847Z,63.78
2024-02-22T14:28:29.824Z,64.17
2024-02-22T14:30:57.639Z,64.39
2024-02-22T14:33:25.999Z,64.63
2024-02-22T14:35:54.261Z,64.63
2024-02-22T14:38:25.103Z,64.63
2024-02-22T14:40:53.074Z,64.75
2024-02-22T14:43:20.918Z,64.69
2024-02-22T14:45:51.623Z,64.76
2024-02-22T14:48:19.845Z,64.89
2024-02-22T14:50:48.340Z,64.86
2024-02-22T14:53:16.361Z,64.95
2024-02-22T14:55:46.178Z,64.96
2024-02-22T14:58:14.282Z,64.67
2024-02-22T15:00:43.972Z,64.69
2024-02-22T15:03:11.898Z,64.73
2024-02-22T15:05:39.908Z,64.70
2024-02-22T15:08:07.968Z,64.64
2024-02-22T15:10:35.885Z,64.82
2024-02-22T15:13:04.039Z,64.94
2024-02-22T15:15:31.900Z,64.85
2024-02-22T15:17:59.756Z,65.03
2024-02-22T15:20:27.918Z,65.13
2024-02-22T15:22:55.957Z,65.30
2024-02-22T15:25:23.854Z,65.28
2024-02-22T15:27:51.705Z,65.09
2024-02-22T15:30:19.888Z,65.15
2024-02-22T15:32:47.876Z,65.31
2024-02-22T15:35:15.902Z,65.31
2024-02-22T15:37:43.883Z,65.53
2024-02-22T15:40:13.383Z,65.45
2024-02-22T15:42:41.362Z,65.52
2024-02-22T15:45:09.621Z,65.61
2024-02-22T15:47:37.646Z,65.41
2024-02-22T15:50:07.378Z,65.41
2024-02-22T15:52:35.588Z,65.52
2024-02-22T15:55:03.992Z,65.52
2024-02-22T15:57:31.825Z,65.57
2024-02-22T16:00:03.929Z,65.61
2024-02-22T16:02:38.408Z,65.53
2024-02-22T16:05:07.591Z,65.55
2024-02-22T16:07:35.518Z,65.70
2024-02-22T16:10:05.953Z,65.51
2024-02-22T16:12:33.836Z,65.59
2024-02-22T16:15:06.178Z,65.57
2024-02-22T16:17:37.712Z,65.62
2024-02-22T16:20:06.619Z,65.68
2024-02-22T16:22:34.615Z,65.72
2024-02-22T16:25:02.529Z,65.71
2024-02-22T16:27:30.691Z,65.67
2024-02-22T16:29:58.634Z,65.66
2024-02-22T16:32:26.598Z,65.58
2024-02-22T16:34:54.617Z,65.50
2024-02-22T16:37:22.840Z,65.50
2024-02-22T16:39:50.654Z,65.46
2024-02-22T16:42:18.667Z,65.37
2024-02-22T16:44:47.136Z,65.48
2024-02-22T16:47:19.282Z,65.61
2024-02-22T16:49:47.230Z,65.71
2024-02-22T16:52:15.510Z,65.85
2024-02-22T16:54:43.811Z,65.88
2024-02-22T16:57:12.084Z,65.91
2024-02-22T16:59:40.084Z,65.90
2024-02-22T17:02:08.090Z,65.87
2024-02-22T17:04:44.400Z,65.79
2024-02-22T17:07:12.241Z,65.71
2024-02-22T17:09:40.403Z,65.80
2024-02-22T17:12:08.481Z,65.92
2024-02-22T17:14:39.291Z,65.90
2024-02-22T17:17:07.465Z,65.93
2024-02-22T17:19:37.982Z,65.73
2024-02-22T17:22:05.837Z,65.73
2024-02-22T17:24:33.685Z,65.73
2024-02-22T17:27:01.491Z,65.66
2024-02-22T17:29:29.480Z,65.80
2024-02-22T17:31:57.363Z,65.73
2024-02-22T17:34:26.387Z,65.80
2024-02-22T17:36:54.711Z,65.83
2024-02-22T17:39:22.830Z,66.06
2024-02-22T17:41:51.195Z,65.98
2024-02-22T17:44:19.216Z,65.80
2024-02-22T17:46:47.269Z,65.90
2024-02-22T17:49:15.297Z,65.89
2024-02-22T17:51:50.353Z,65.88
2024-02-22T17:54:22.551Z,65.71
2024-02-22T17:56:50.478Z,65.67
2024-02-22T17:59:18.403Z,65.71
2024-02-22T18:01:46.338Z,65.85
2024-02-22T18:04:14.733Z,65.76
2024-02-22T18:06:42.682Z,65.72
2024-02-22T18:09:10.715Z,65.82
2024-02-22T18:11:39.439Z,65.83
2024-02-22T18:14:08.530Z,65.83
2024-02-22T18:16:36.763Z,65.93
2024-02-22T18:19:04.767Z,66.04
2024-02-22T18:21:32.735Z,66.01
2024-02-22T18:24:00.595Z,65.99
2024-02-22T18:26:28.458Z,66.13
2024-02-22T18:28:57.098Z,66.19
2024-02-22T18:31:25.172Z,66.18
2024-02-22T18:33:53.068Z,66.31
2024-02-22T18:36:21.072Z,66.32
2024-02-22T18:38:48.938Z,66.37
2024-02-22T18:41:18.288Z,66.50
2024-02-22T18:43:46.404Z,66.46
2024-02-22T18:46:14.652Z,66.68
2024-02-22T18:48:42.584Z,66.69
2024-02-22T18:51:11.156Z,66.79
2024-02-22T18:53:39.233Z,66.80
2024-02-22T18:56:07.326Z,66.79
2024-02-22T18:58:35.195Z,66.87
2024-02-22T19:01:03.738Z,67.04
2024-02-22T19:03:31.916Z,66.87
2024-02-22T19:06:00.330Z,67.00
2024-02-22T19:08:28.257Z,67.05
2024-02-22T19:10:56.276Z,66.90
2024-02-22T19:13:26.640Z,66.93
2024-02-22T19:15:54.834Z,66.92
2024-02-22T19:18:22.840Z,66.90
2024-02-22T19:20:52.264Z,67.07
2024-02-22T19:23:20.746Z,67.11
2024-02-22T19:25:49.287Z,66.99
2024-02-22T19:31:19.093Z,67.22
2024-02-22T19:33:48.762Z,67.23
2024-02-22T19:36:18.131Z,67.25
2024-02-22T19:38:47.758Z,67.16
2024-02-22T19:41:15.873Z,67.16
2024-02-22T19:43:44.037Z,67.31
2024-02-22T19:46:12.001Z,67.27
2024-02-22T19:48:40.133Z,67.41
2024-02-22T19:51:08.653Z,67.49
2024-02-22T19:53:36.542Z,67.41
2024-02-22T19:56:06.729Z,67.40
2024-02-22T19:58:34.662Z,67.46
2024-02-22T20:01:02.523Z,67.54
2024-02-22T20:03:30.482Z,67.62
2024-02-22T20:05:58.390Z,67.57
2024-02-22T20:08:27.502Z,67.59
2024-02-22T20:10:58.531Z,67.56
2024-02-22T20:13:32.335Z,67.58
2024-02-22T20:16:00.385Z,67.67
2024-02-22T20:18:28.697Z,67.75
2024-02-22T20:21:00.629Z,67.66
2024-02-22T20:23:29.351Z,67.72
2024-02-22T20:25:57.425Z,67.83
2024-02-22T20:28:26.332Z,67.70
2024-02-22T20:30:54.164Z,67.73
2024-02-22T20:33:22.203Z,67.81
2024-02-22T20:35:50.723Z,67.70
2024-02-22T20:38:19.005Z,67.62
2024-02-22T20:40:47.063Z,67.55
2024-02-22T20:43:16.329Z,67.35
2024-02-22T20:45:44.945Z,67.49
2024-02-22T20:48:13.954Z,67.44
2024-02-22T20:50:42.904Z,67.52
2024-02-22T20:53:10.960Z,67.51
2024-02-22T20:55:38.839Z,67.57
2024-02-22T20:58:06.725Z,67.64
2024-02-22T21:00:34.550Z,67.73
2024-02-22T21:03:02.482Z,67.79
2024-02-22T21:05:35.353Z,67.92
2024-02-22T21:08:05.300Z,68.01
2024-02-22T21:10:33.622Z,67.98
2024-02-22T21:13:02.890Z,67.92
2024-02-22T21:15:32.118Z,68.04
2024-02-22T21:18:00.360Z,68.16
2024-02-22T21:20:28.315Z,68.21
2024-02-22T21:22:56.294Z,68.23
2024-02-22T21:25:25.251Z,68.38
2024-02-22T21:27:53.163Z,68.40
2024-02-22T21:30:21.007Z,68.46
2024-02-22T21:32:49.007Z,68.63
2024-02-22T21:35:16.897Z,68.79
2024-02-22T21:37:45.030Z,68.87
2024-02-22T21:40:14.406Z,69.09
2024-02-22T21:42:42.259Z,69.27
2024-02-22T21:45:11.173Z,69.42
2024-02-22T21:47:39.125Z,69.63
2024-02-22T21:50:09.625Z,69.74
2024-02-22T21:52:38.161Z,70.18
2024-02-22T21:55:07.148Z,70.19
2024-02-22T21:57:35.878Z,70.40
2024-02-22T22:00:04.631Z,70.01
2024-02-22T22:02:37.967Z,70.09
2024-02-22T22:05:07.849Z,70.12
2024-02-22T22:07:36.341Z,70.28
2024-02-22T22:10:04.787Z,70.29
2024-02-22T22:12:33.090Z,70.38
2024-02-22T22:15:01.452Z,70.37
2024-02-22T22:17:29.391Z,70.69
2024-02-22T22:19:57.492Z,70.93
2024-02-22T22:22:25.398Z,71.15
2024-02-22T22:24:53.196Z,71.29
2024-02-22T22:27:21.171Z,71.32
2024-02-22T22:29:49.087Z,71.41
2024-02-22T22:32:16.941Z,71.37
2024-02-22T22:34:44.915Z,71.33
2024-02-22T22:37:12.905Z,71.38
2024-02-22T22:39:41.388Z,71.51
2024-02-22T22:42:09.296Z,71.60
2024-02-22T22:44:39.879Z,71.78
2024-02-22T22:47:07.814Z,71.79
2024-02-22T22:49:35.900Z,71.92
2024-02-22T22:52:04.379Z,71.85
2024-02-22T22:54:32.219Z,72.07
2024-02-22T22:57:00.602Z,72.15
2024-02-22T22:59:28.549Z,72.19
2024-02-22T23:01:57.891Z,72.09
2024-02-22T23:04:26.301Z,72.09
2024-02-22T23:06:54.225Z,72.28
2024-02-22T23:09:26.297Z,72.47
2024-02-22T23:11:54.707Z,72.52
2024-02-22T23:14:22.714Z,72.59
2024-02-22T23:16:50.779Z,72.75
2024-02-22T23:19:18.719Z,72.92
2024-02-22T23:21:46.724Z,72.79
2024-02-22T23:24:14.672Z,73.18
2024-02-22T23:26:42.566Z,73.20
2024-02-22T23:29:10.462Z,73.30
2024-02-22T23:31:40.242Z,73.31
2024-02-22T23:34:09.004Z,73.42
2024-02-22T23:36:37.582Z,73.54
2024-02-22T23:39:05.698Z,73.75
2024-02-22T23:41:33.572Z,73.95
2024-02-22T23:44:01.922Z,74.15
2024-02-22T23:46:30.172Z,74.01
2024-02-22T23:48:58.137Z,74.16
2024-02-22T23:51:26.056Z,74.26
2024-02-22T23:53:53.936Z,74.27
2024-02-22T23:56:21.903Z,74.34
2024-02-22T23:58:49.864Z,74.46
